sensor_id;sensor_type;location;lat;lon;timestamp;temperature;humidity
7362;DHT22;3721;44.490;11.220;2023-03-01T00:01:09;7.50;93.90
7362;DHT22;3721;44.490;11.220;2023-03-01T00:03:36;7.50;94.10
7362;DHT22;3721;44.490;11.220;2023-03-01T00:06:02;7.60;94.00
7362;DHT22;3721;44.490;11.220;2023-03-01T00:08:28;7.60;94.00
7362;DHT22;3721;44.490;11.220;2023-03-01T00:11:04;7.60;94.00
7362;DHT22;3721;44.490;11.220;2023-03-01T00:13:30;7.60;93.60
7362;DHT22;3721;44.490;11.220;2023-03-01T00:15:55;7.40;93.40
7362;DHT22;3721;44.490;11.220;2023-03-01T00:18:21;7.40;93.30
7362;DHT22;3721;44.490;11.220;2023-03-01T00:20:54;7.30;93.40
7362;DHT22;3721;44.490;11.220;2023-03-01T00:23:21;7.40;93.50
7362;DHT22;3721;44.490;11.220;2023-03-01T00:25:47;7.30;93.40
7362;DHT22;3721;44.490;11.220;2023-03-01T00:28:12;7.40;93.40
7362;DHT22;3721;44.490;11.220;2023-03-01T00:30:38;7.50;93.40
7362;DHT22;3721;44.490;11.220;2023-03-01T00:33:04;7.50;93.70
7362;DHT22;3721;44.490;11.220;2023-03-01T00:35:29;7.50;93.30
7362;DHT22;3721;44.490;11.220;2023-03-01T00:37:56;7.40;93.10
7362;DHT22;3721;44.490;11.220;2023-03-01T00:40:30;7.30;93.20
7362;DHT22;3721;44.490;11.220;2023-03-01T00:42:56;7.30;93.40
7362;DHT22;3721;44.490;11.220;2023-03-01T00:45:22;7.40;93.30
7362;DHT22;3721;44.490;11.220;2023-03-01T00:47:49;7.40;93.40
7362;DHT22;3721;44.490;11.220;2023-03-01T00:50:15;7.40;93.10
7362;DHT22;3721;44.490;11.220;2023-03-01T00:52:41;7.30;93.20
7362;DHT22;3721;44.490;11.220;2023-03-01T00:55:07;7.30;93.10
7362;DHT22;3721;44.490;11.220;2023-03-01T00:57:35;7.20;92.90
7362;DHT22;3721;44.490;11.220;2023-03-01T01:00:01;7.30;93.00
7362;DHT22;3721;44.490;11.220;2023-03-01T01:02:26;7.30;92.90
7362;DHT22;3721;44.490;11.220;2023-03-01T01:04:52;7.30;93.00
7362;DHT22;3721;44.490;11.220;2023-03-01T01:07:18;7.30;93.00
7362;DHT22;3721;44.490;11.220;2023-03-01T01:09:45;7.30;92.90
7362;DHT22;3721;44.490;11.220;2023-03-01T01:12:11;7.20;92.90
7362;DHT22;3721;44.490;11.220;2023-03-01T01:14:37;7.20;93.00
7362;DHT22;3721;44.490;11.220;2023-03-01T01:17:03;7.20;92.80
7362;DHT22;3721;44.490;11.220;2023-03-01T01:19:29;7.10;92.80
7362;DHT22;3721;44.490;11.220;2023-03-01T01:21:54;7.10;92.90
7362;DHT22;3721;44.490;11.220;2023-03-01T01:24:20;7.10;92.90
7362;DHT22;3721;44.490;11.220;2023-03-01T01:26:46;7.10;92.90
7362;DHT22;3721;44.490;11.220;2023-03-01T01:29:11;7.10;92.90
7362;DHT22;3721;44.490;11.220;2023-03-01T01:31:40;7.10;92.90
7362;DHT22;3721;44.490;11.220;2023-03-01T01:34:07;7.20;92.90
7362;DHT22;3721;44.490;11.220;2023-03-01T01:36:35;7.20;92.90
7362;DHT22;3721;44.490;11.220;2023-03-01T01:39:01;7.20;93.00
7362;DHT22;3721;44.490;11.220;2023-03-01T01:41:28;7.30;93.30
7362;DHT22;3721;44.490;11.220;2023-03-01T01:44:20;7.30;92.90
7362;DHT22;3721;44.490;11.220;2023-03-01T01:47:06;7.30;92.70
7362;DHT22;3721;44.490;11.220;2023-03-01T01:49:49;7.30;92.80
7362;DHT22;3721;44.490;11.220;2023-03-01T01:52:27;7.30;93.00
7362;DHT22;3721;44.490;11.220;2023-03-01T01:55:00;7.40;93.10
7362;DHT22;3721;44.490;11.220;2023-03-01T01:57:40;7.40;93.00
7362;DHT22;3721;44.490;11.220;2023-03-01T02:00:16;7.40;93.00
7362;DHT22;3721;44.490;11.220;2023-03-01T02:02:43;7.40;93.00
7362;DHT22;3721;44.490;11.220;2023-03-01T02:08:05;7.50;93.00
7362;DHT22;3721;44.490;11.220;2023-03-01T02:10:33;7.50;93.00
7362;DHT22;3721;44.490;11.220;2023-03-01T02:13:00;7.50;93.10
7362;DHT22;3721;44.490;11.220;2023-03-01T02:15:26;7.50;93.10
7362;DHT22;3721;44.490;11.220;2023-03-01T02:17:56;7.60;93.00
7362;DHT22;3721;44.490;11.220;2023-03-01T02:23:24;7.50;92.70
7362;DHT22;3721;44.490;11.220;2023-03-01T02:28:48;7.50;92.60
7362;DHT22;3721;44.490;11.220;2023-03-01T02:31:17;7.50;92.80
7362;DHT22;3721;44.490;11.220;2023-03-01T02:34:03;7.50;92.60
7362;DHT22;3721;44.490;11.220;2023-03-01T02:36:38;7.40;92.40
7362;DHT22;3721;44.490;11.220;2023-03-01T02:39:06;7.20;92.30
7362;DHT22;3721;44.490;11.220;2023-03-01T02:41:36;7.20;92.60
7362;DHT22;3721;44.490;11.220;2023-03-01T02:44:04;7.20;92.80
7362;DHT22;3721;44.490;11.220;2023-03-01T02:46:29;7.20;92.90
7362;DHT22;3721;44.490;11.220;2023-03-01T02:48:57;7.20;92.80
7362;DHT22;3721;44.490;11.220;2023-03-01T02:54:39;7.20;92.80
7362;DHT22;3721;44.490;11.220;2023-03-01T02:57:08;7.20;92.70
7362;DHT22;3721;44.490;11.220;2023-03-01T02:59:36;7.20;92.80
7362;DHT22;3721;44.490;11.220;2023-03-01T03:02:06;7.30;92.90
7362;DHT22;3721;44.490;11.220;2023-03-01T03:04:31;7.30;92.80
7362;DHT22;3721;44.490;11.220;2023-03-01T03:06:57;7.40;92.80
7362;DHT22;3721;44.490;11.220;2023-03-01T03:09:23;7.30;92.40
7362;DHT22;3721;44.490;11.220;2023-03-01T03:11:49;7.20;92.40
7362;DHT22;3721;44.490;11.220;2023-03-01T03:14:16;7.10;92.60
7362;DHT22;3721;44.490;11.220;2023-03-01T03:16:49;7.20;92.80
7362;DHT22;3721;44.490;11.220;2023-03-01T03:19:16;7.20;92.70
7362;DHT22;3721;44.490;11.220;2023-03-01T03:21:42;7.20;93.10
7362;DHT22;3721;44.490;11.220;2023-03-01T03:24:08;7.20;93.00
7362;DHT22;3721;44.490;11.220;2023-03-01T03:26:34;7.30;93.20
7362;DHT22;3721;44.490;11.220;2023-03-01T03:29:00;7.20;93.10
7362;DHT22;3721;44.490;11.220;2023-03-01T03:31:26;7.20;93.50
7362;DHT22;3721;44.490;11.220;2023-03-01T03:33:53;7.20;93.80
7362;DHT22;3721;44.490;11.220;2023-03-01T03:36:21;7.30;94.00
7362;DHT22;3721;44.490;11.220;2023-03-01T03:38:47;7.30;94.20
7362;DHT22;3721;44.490;11.220;2023-03-01T03:41:14;7.30;94.10
7362;DHT22;3721;44.490;11.220;2023-03-01T03:43:41;7.30;94.10
7362;DHT22;3721;44.490;11.220;2023-03-01T03:46:09;7.30;94.30
7362;DHT22;3721;44.490;11.220;2023-03-01T03:48:38;7.30;94.60
7362;DHT22;3721;44.490;11.220;2023-03-01T04:20:32;7.30;94.70
7362;DHT22;3721;44.490;11.220;2023-03-01T04:28:04;7.20;95.90
7362;DHT22;3721;44.490;11.220;2023-03-01T04:30:30;7.20;96.00
7362;DHT22;3721;44.490;11.220;2023-03-01T04:33:05;7.20;96.10
7362;DHT22;3721;44.490;11.220;2023-03-01T04:40:23;7.20;96.10
7362;DHT22;3721;44.490;11.220;2023-03-01T04:42:49;7.10;95.80
7362;DHT22;3721;44.490;11.220;2023-03-01T04:45:15;7.10;96.00
7362;DHT22;3721;44.490;11.220;2023-03-01T04:47:42;7.10;96.10
7362;DHT22;3721;44.490;11.220;2023-03-01T04:50:11;7.10;96.10
7362;DHT22;3721;44.490;11.220;2023-03-01T04:52:37;7.10;96.10
7362;DHT22;3721;44.490;11.220;2023-03-01T04:55:03;7.10;96.30
7362;DHT22;3721;44.490;11.220;2023-03-01T04:57:30;7.10;96.30
7362;DHT22;3721;44.490;11.220;2023-03-01T04:59:55;7.10;96.30
7362;DHT22;3721;44.490;11.220;2023-03-01T05:02:21;7.10;96.10
7362;DHT22;3721;44.490;11.220;2023-03-01T05:04:47;7.00;96.10
7362;DHT22;3721;44.490;11.220;2023-03-01T05:07:12;7.00;96.40
7362;DHT22;3721;44.490;11.220;2023-03-01T05:09:45;7.00;96.30
7362;DHT22;3721;44.490;11.220;2023-03-01T05:29:28;7.00;96.40
7362;DHT22;3721;44.490;11.220;2023-03-01T05:31:56;6.90;96.90
7362;DHT22;3721;44.490;11.220;2023-03-01T05:34:33;6.80;97.10
7362;DHT22;3721;44.490;11.220;2023-03-01T05:37:00;6.80;97.30
7362;DHT22;3721;44.490;11.220;2023-03-01T05:39:45;6.80;97.40
7362;DHT22;3721;44.490;11.220;2023-03-01T05:42:11;6.80;97.40
7362;DHT22;3721;44.490;11.220;2023-03-01T05:44:37;6.80;97.50
7362;DHT22;3721;44.490;11.220;2023-03-01T05:47:08;6.80;97.60
7362;DHT22;3721;44.490;11.220;2023-03-01T05:49:34;6.70;97.70
7362;DHT22;3721;44.490;11.220;2023-03-01T05:52:00;6.70;97.70
7362;DHT22;3721;44.490;11.220;2023-03-01T05:54:25;6.70;97.80
7362;DHT22;3721;44.490;11.220;2023-03-01T05:56:51;6.70;97.80
7362;DHT22;3721;44.490;11.220;2023-03-01T05:59:16;6.70;97.80
7362;DHT22;3721;44.490;11.220;2023-03-01T06:01:42;6.70;97.90
7362;DHT22;3721;44.490;11.220;2023-03-01T06:04:08;6.70;97.90
7362;DHT22;3721;44.490;11.220;2023-03-01T06:06:34;6.70;97.80
7362;DHT22;3721;44.490;11.220;2023-03-01T06:11:51;6.70;98.00
7362;DHT22;3721;44.490;11.220;2023-03-01T06:14:17;6.70;98.10
7362;DHT22;3721;44.490;11.220;2023-03-01T06:16:42;6.60;98.10
7362;DHT22;3721;44.490;11.220;2023-03-01T06:19:08;6.60;98.30
7362;DHT22;3721;44.490;11.220;2023-03-01T06:21:33;6.60;98.50
7362;DHT22;3721;44.490;11.220;2023-03-01T06:23:59;6.60;98.40
7362;DHT22;3721;44.490;11.220;2023-03-01T06:26:24;6.60;98.50
7362;DHT22;3721;44.490;11.220;2023-03-01T06:28:50;6.60;98.50
7362;DHT22;3721;44.490;11.220;2023-03-01T06:31:15;6.60;98.80
7362;DHT22;3721;44.490;11.220;2023-03-01T06:33:41;6.60;98.50
7362;DHT22;3721;44.490;11.220;2023-03-01T06:36:06;6.70;98.60
7362;DHT22;3721;44.490;11.220;2023-03-01T06:38:32;6.70;98.60
7362;DHT22;3721;44.490;11.220;2023-03-01T06:40:58;6.70;98.70
7362;DHT22;3721;44.490;11.220;2023-03-01T06:43:23;6.70;98.60
7362;DHT22;3721;44.490;11.220;2023-03-01T06:45:49;6.70;98.70
7362;DHT22;3721;44.490;11.220;2023-03-01T06:48:14;6.60;98.70
7362;DHT22;3721;44.490;11.220;2023-03-01T06:50:40;6.60;99.00
7362;DHT22;3721;44.490;11.220;2023-03-01T06:53:05;6.70;98.90
7362;DHT22;3721;44.490;11.220;2023-03-01T06:55:31;6.70;98.90
7362;DHT22;3721;44.490;11.220;2023-03-01T06:57:57;6.70;98.90
7362;DHT22;3721;44.490;11.220;2023-03-01T07:00:23;6.70;99.00
7362;DHT22;3721;44.490;11.220;2023-03-01T07:02:49;6.70;99.00
7362;DHT22;3721;44.490;11.220;2023-03-01T07:05:15;6.70;99.10
7362;DHT22;3721;44.490;11.220;2023-03-01T07:07:40;6.60;99.00
7362;DHT22;3721;44.490;11.220;2023-03-01T07:10:06;6.70;99.20
7362;DHT22;3721;44.490;11.220;2023-03-01T07:12:32;6.60;99.00
7362;DHT22;3721;44.490;11.220;2023-03-01T07:14:57;6.60;99.20
7362;DHT22;3721;44.490;11.220;2023-03-01T07:17:23;6.60;99.20
7362;DHT22;3721;44.490;11.220;2023-03-01T07:19:48;6.60;99.20
7362;DHT22;3721;44.490;11.220;2023-03-01T07:22:14;6.60;99.40
7362;DHT22;3721;44.490;11.220;2023-03-01T07:24:40;6.60;99.40
7362;DHT22;3721;44.490;11.220;2023-03-01T07:27:06;6.60;99.20
7362;DHT22;3721;44.490;11.220;2023-03-01T07:29:31;6.60;99.40
7362;DHT22;3721;44.490;11.220;2023-03-01T07:31:57;6.60;99.40
7362;DHT22;3721;44.490;11.220;2023-03-01T07:34:23;6.60;99.50
7362;DHT22;3721;44.490;11.220;2023-03-01T07:36:49;6.60;99.50
7362;DHT22;3721;44.490;11.220;2023-03-01T07:39:14;6.60;99.60
7362;DHT22;3721;44.490;11.220;2023-03-01T07:41:40;6.60;99.40
7362;DHT22;3721;44.490;11.220;2023-03-01T07:44:05;6.60;99.50
7362;DHT22;3721;44.490;11.220;2023-03-01T07:46:31;6.60;99.50
7362;DHT22;3721;44.490;11.220;2023-03-01T07:48:57;6.60;99.60
7362;DHT22;3721;44.490;11.220;2023-03-01T07:51:23;6.60;99.70
7362;DHT22;3721;44.490;11.220;2023-03-01T07:53:49;6.60;99.80
7362;DHT22;3721;44.490;11.220;2023-03-01T07:56:14;6.60;99.80
7362;DHT22;3721;44.490;11.220;2023-03-01T07:58:42;6.60;99.60
7362;DHT22;3721;44.490;11.220;2023-03-01T08:01:10;6.50;99.70
7362;DHT22;3721;44.490;11.220;2023-03-01T08:03:36;6.50;99.90
7362;DHT22;3721;44.490;11.220;2023-03-01T08:06:03;6.50;99.90
7362;DHT22;3721;44.490;11.220;2023-03-01T08:08:29;6.50;99.90
7362;DHT22;3721;44.490;11.220;2023-03-01T08:10:58;6.50;99.90
7362;DHT22;3721;44.490;11.220;2023-03-01T08:13:23;6.50;99.90
7362;DHT22;3721;44.490;11.220;2023-03-01T08:15:49;6.50;99.90
7362;DHT22;3721;44.490;11.220;2023-03-01T08:18:15;6.60;99.90
7362;DHT22;3721;44.490;11.220;2023-03-01T08:20:41;6.50;99.90
7362;DHT22;3721;44.490;11.220;2023-03-01T08:23:06;6.50;99.90
7362;DHT22;3721;44.490;11.220;2023-03-01T08:25:32;6.60;99.90
7362;DHT22;3721;44.490;11.220;2023-03-01T08:27:57;6.50;99.90
7362;DHT22;3721;44.490;11.220;2023-03-01T08:30:23;6.50;99.90
7362;DHT22;3721;44.490;11.220;2023-03-01T08:32:49;6.50;99.90
7362;DHT22;3721;44.490;11.220;2023-03-01T08:35:15;6.50;99.90
7362;DHT22;3721;44.490;11.220;2023-03-01T08:37:40;6.50;99.90
7362;DHT22;3721;44.490;11.220;2023-03-01T08:40:06;6.50;99.90
7362;DHT22;3721;44.490;11.220;2023-03-01T08:42:32;6.50;99.90
7362;DHT22;3721;44.490;11.220;2023-03-01T08:44:58;6.50;99.90
7362;DHT22;3721;44.490;11.220;2023-03-01T08:47:23;6.50;99.90
7362;DHT22;3721;44.490;11.220;2023-03-01T08:49:49;6.50;99.90
7362;DHT22;3721;44.490;11.220;2023-03-01T08:52:15;6.50;99.90
7362;DHT22;3721;44.490;11.220;2023-03-01T08:54:40;6.50;99.90
7362;DHT22;3721;44.490;11.220;2023-03-01T08:57:06;6.50;99.90
7362;DHT22;3721;44.490;11.220;2023-03-01T08:59:32;6.50;99.90
7362;DHT22;3721;44.490;11.220;2023-03-01T09:02:03;6.50;99.90
7362;DHT22;3721;44.490;11.220;2023-03-01T09:04:28;6.50;99.90
7362;DHT22;3721;44.490;11.220;2023-03-01T09:06:54;6.40;99.90
7362;DHT22;3721;44.490;11.220;2023-03-01T09:09:20;6.50;99.90
7362;DHT22;3721;44.490;11.220;2023-03-01T09:11:45;6.50;99.90
7362;DHT22;3721;44.490;11.220;2023-03-01T09:14:12;6.50;99.90
7362;DHT22;3721;44.490;11.220;2023-03-01T09:16:37;6.60;99.90
7362;DHT22;3721;44.490;11.220;2023-03-01T09:19:03;6.60;99.90
7362;DHT22;3721;44.490;11.220;2023-03-01T09:21:28;6.60;99.90
7362;DHT22;3721;44.490;11.220;2023-03-01T09:23:55;6.60;99.90
7362;DHT22;3721;44.490;11.220;2023-03-01T09:26:21;6.70;99.90
7362;DHT22;3721;44.490;11.220;2023-03-01T09:28:47;6.70;99.90
7362;DHT22;3721;44.490;11.220;2023-03-01T09:31:14;6.70;99.90
7362;DHT22;3721;44.490;11.220;2023-03-01T09:33:40;6.80;99.90
7362;DHT22;3721;44.490;11.220;2023-03-01T09:36:07;6.80;99.90
7362;DHT22;3721;44.490;11.220;2023-03-01T09:38:33;6.80;99.90
7362;DHT22;3721;44.490;11.220;2023-03-01T09:40:59;6.90;99.90
7362;DHT22;3721;44.490;11.220;2023-03-01T09:46:10;6.90;99.90
7362;DHT22;3721;44.490;11.220;2023-03-01T09:48:38;6.90;99.90
7362;DHT22;3721;44.490;11.220;2023-03-01T09:51:07;6.90;99.90
7362;DHT22;3721;44.490;11.220;2023-03-01T09:53:34;6.80;99.90
7362;DHT22;3721;44.490;11.220;2023-03-01T09:58:31;6.90;99.90
7362;DHT22;3721;44.490;11.220;2023-03-01T10:01:02;6.90;99.90
7362;DHT22;3721;44.490;11.220;2023-03-01T10:03:41;6.90;99.90
7362;DHT22;3721;44.490;11.220;2023-03-01T10:11:04;6.90;99.90
7362;DHT22;3721;44.490;11.220;2023-03-01T10:13:34;6.80;99.90
7362;DHT22;3721;44.490;11.220;2023-03-01T10:16:09;6.80;99.90
7362;DHT22;3721;44.490;11.220;2023-03-01T10:18:35;6.80;99.90
7362;DHT22;3721;44.490;11.220;2023-03-01T10:21:09;6.80;99.90
7362;DHT22;3721;44.490;11.220;2023-03-01T10:23:37;6.80;99.90
7362;DHT22;3721;44.490;11.220;2023-03-01T10:31:18;6.90;99.90
7362;DHT22;3721;44.490;11.220;2023-03-01T10:33:45;6.90;99.90
7362;DHT22;3721;44.490;11.220;2023-03-01T10:36:13;6.90;99.90
7362;DHT22;3721;44.490;11.220;2023-03-01T10:38:49;6.90;99.90
7362;DHT22;3721;44.490;11.220;2023-03-01T10:41:17;6.90;99.90
7362;DHT22;3721;44.490;11.220;2023-03-01T10:46:29;6.90;99.90
7362;DHT22;3721;44.490;11.220;2023-03-01T10:49:07;7.00;99.90
7362;DHT22;3721;44.490;11.220;2023-03-01T10:51:37;7.00;99.90
7362;DHT22;3721;44.490;11.220;2023-03-01T10:54:04;7.00;99.90
7362;DHT22;3721;44.490;11.220;2023-03-01T10:56:34;7.00;99.90
7362;DHT22;3721;44.490;11.220;2023-03-01T10:59:19;7.00;99.90
7362;DHT22;3721;44.490;11.220;2023-03-01T11:01:45;7.00;99.90
7362;DHT22;3721;44.490;11.220;2023-03-01T11:04:11;7.00;99.90
7362;DHT22;3721;44.490;11.220;2023-03-01T11:06:38;6.90;99.90
7362;DHT22;3721;44.490;11.220;2023-03-01T11:09:21;6.80;99.90
7362;DHT22;3721;44.490;11.220;2023-03-01T11:11:53;6.70;99.90
7362;DHT22;3721;44.490;11.220;2023-03-01T11:14:23;6.70;99.90
7362;DHT22;3721;44.490;11.220;2023-03-01T11:16:57;6.70;99.90
7362;DHT22;3721;44.490;11.220;2023-03-01T11:19:23;6.60;99.90
7362;DHT22;3721;44.490;11.220;2023-03-01T11:24:32;6.60;99.90
7362;DHT22;3721;44.490;11.220;2023-03-01T11:26:59;6.50;99.90
7362;DHT22;3721;44.490;11.220;2023-03-01T11:31:59;6.40;99.90
7362;DHT22;3721;44.490;11.220;2023-03-01T11:34:31;6.40;99.90
7362;DHT22;3721;44.490;11.220;2023-03-01T11:37:01;6.30;99.90
7362;DHT22;3721;44.490;11.220;2023-03-01T11:39:52;6.30;99.90
7362;DHT22;3721;44.490;11.220;2023-03-01T11:42:20;6.30;99.90
7362;DHT22;3721;44.490;11.220;2023-03-01T11:44:53;6.20;99.90
7362;DHT22;3721;44.490;11.220;2023-03-01T12:10:28;6.30;99.90
7362;DHT22;3721;44.490;11.220;2023-03-01T12:15:25;6.40;99.90
7362;DHT22;3721;44.490;11.220;2023-03-01T12:18:03;6.40;99.90
7362;DHT22;3721;44.490;11.220;2023-03-01T12:41:11;6.20;99.90
7362;DHT22;3721;44.490;11.220;2023-03-01T12:43:49;6.10;99.90
7362;DHT22;3721;44.490;11.220;2023-03-01T12:51:28;5.90;99.90
7362;DHT22;3721;44.490;11.220;2023-03-01T12:53:55;5.80;99.90
7362;DHT22;3721;44.490;11.220;2023-03-01T12:56:27;5.80;99.90
7362;DHT22;3721;44.490;11.220;2023-03-01T13:01:33;5.70;99.90
7362;DHT22;3721;44.490;11.220;2023-03-01T13:04:17;5.70;99.90
7362;DHT22;3721;44.490;11.220;2023-03-01T13:09:32;5.60;99.90
7362;DHT22;3721;44.490;11.220;2023-03-01T13:11:59;5.50;99.90
7362;DHT22;3721;44.490;11.220;2023-03-01T13:16:53;5.40;99.90
7362;DHT22;3721;44.490;11.220;2023-03-01T13:19:20;5.40;99.90
7362;DHT22;3721;44.490;11.220;2023-03-01T13:21:47;5.40;99.90
7362;DHT22;3721;44.490;11.220;2023-03-01T13:24:27;5.40;99.90
7362;DHT22;3721;44.490;11.220;2023-03-01T13:29:43;5.40;99.90
7362;DHT22;3721;44.490;11.220;2023-03-01T13:32:18;5.30;99.90
7362;DHT22;3721;44.490;11.220;2023-03-01T13:34:45;5.30;99.90
7362;DHT22;3721;44.490;11.220;2023-03-01T13:37:18;5.20;99.90
7362;DHT22;3721;44.490;11.220;2023-03-01T13:39:44;5.20;99.90
7362;DHT22;3721;44.490;11.220;2023-03-01T13:47:44;5.20;99.90
7362;DHT22;3721;44.490;11.220;2023-03-01T13:50:18;5.20;99.90
7362;DHT22;3721;44.490;11.220;2023-03-01T13:52:45;5.20;99.90
7362;DHT22;3721;44.490;11.220;2023-03-01T13:57:41;5.30;99.90
7362;DHT22;3721;44.490;11.220;2023-03-01T14:00:24;5.30;99.90
7362;DHT22;3721;44.490;11.220;2023-03-01T14:03:00;5.30;99.90
7362;DHT22;3721;44.490;11.220;2023-03-01T14:05:25;5.40;99.90
7362;DHT22;3721;44.490;11.220;2023-03-01T14:07:51;5.40;99.90
7362;DHT22;3721;44.490;11.220;2023-03-01T14:10:17;5.50;99.90
7362;DHT22;3721;44.490;11.220;2023-03-01T14:15:36;5.50;99.90
7362;DHT22;3721;44.490;11.220;2023-03-01T14:18:07;5.50;99.90
7362;DHT22;3721;44.490;11.220;2023-03-01T14:20:40;5.50;99.90
7362;DHT22;3721;44.490;11.220;2023-03-01T14:23:13;5.50;99.90
7362;DHT22;3721;44.490;11.220;2023-03-01T14:25:45;5.50;99.90
7362;DHT22;3721;44.490;11.220;2023-03-01T14:30:43;5.50;99.90
7362;DHT22;3721;44.490;11.220;2023-03-01T14:33:23;5.50;99.90
7362;DHT22;3721;44.490;11.220;2023-03-01T14:36:08;5.50;99.90
7362;DHT22;3721;44.490;11.220;2023-03-01T14:38:37;5.50;99.90
7362;DHT22;3721;44.490;11.220;2023-03-01T14:41:05;5.50;99.90
7362;DHT22;3721;44.490;11.220;2023-03-01T14:43:31;5.60;99.90
7362;DHT22;3721;44.490;11.220;2023-03-01T14:45:56;5.50;99.90
7362;DHT22;3721;44.490;11.220;2023-03-01T14:48:22;5.50;99.90
7362;DHT22;3721;44.490;11.220;2023-03-01T14:50:48;5.50;99.90
7362;DHT22;3721;44.490;11.220;2023-03-01T14:53:21;5.60;99.90
7362;DHT22;3721;44.490;11.220;2023-03-01T14:55:48;5.60;99.90
7362;DHT22;3721;44.490;11.220;2023-03-01T14:58:18;5.60;99.90
7362;DHT22;3721;44.490;11.220;2023-03-01T15:00:48;5.60;99.90
7362;DHT22;3721;44.490;11.220;2023-03-01T15:03:17;5.60;99.90
7362;DHT22;3721;44.490;11.220;2023-03-01T15:05:45;5.60;99.90
7362;DHT22;3721;44.490;11.220;2023-03-01T15:08:16;5.60;99.90
7362;DHT22;3721;44.490;11.220;2023-03-01T15:10:54;5.60;99.90
7362;DHT22;3721;44.490;11.220;2023-03-01T15:13:24;5.60;99.90
7362;DHT22;3721;44.490;11.220;2023-03-01T15:15:50;5.70;99.90
7362;DHT22;3721;44.490;11.220;2023-03-01T15:18:26;5.60;99.90
7362;DHT22;3721;44.490;11.220;2023-03-01T15:20:52;5.70;99.90
7362;DHT22;3721;44.490;11.220;2023-03-01T15:23:25;5.60;99.90
7362;DHT22;3721;44.490;11.220;2023-03-01T15:25:51;5.60;99.90
7362;DHT22;3721;44.490;11.220;2023-03-01T15:28:27;5.60;99.90
7362;DHT22;3721;44.490;11.220;2023-03-01T15:31:37;5.60;99.90
7362;DHT22;3721;44.490;11.220;2023-03-01T15:33:42;5.60;99.90
7362;DHT22;3721;44.490;11.220;2023-03-01T15:38:56;5.60;99.90
7362;DHT22;3721;44.490;11.220;2023-03-01T15:41:30;5.60;99.90
7362;DHT22;3721;44.490;11.220;2023-03-01T15:43:57;5.60;99.90
7362;DHT22;3721;44.490;11.220;2023-03-01T15:46:32;5.60;99.90
7362;DHT22;3721;44.490;11.220;2023-03-01T15:49:03;5.50;99.90
7362;DHT22;3721;44.490;11.220;2023-03-01T15:51:31;5.60;99.90
7362;DHT22;3721;44.490;11.220;2023-03-01T15:53:58;5.50;99.90
7362;DHT22;3721;44.490;11.220;2023-03-01T15:56:24;5.50;99.90
7362;DHT22;3721;44.490;11.220;2023-03-01T15:58:49;5.50;99.90
7362;DHT22;3721;44.490;11.220;2023-03-01T16:01:15;5.50;99.90
7362;DHT22;3721;44.490;11.220;2023-03-01T16:03:44;5.50;99.90
7362;DHT22;3721;44.490;11.220;2023-03-01T16:06:10;5.50;99.90
7362;DHT22;3721;44.490;11.220;2023-03-01T16:08:39;5.50;99.90
7362;DHT22;3721;44.490;11.220;2023-03-01T16:11:05;5.60;99.90
7362;DHT22;3721;44.490;11.220;2023-03-01T16:13:35;5.60;99.90
7362;DHT22;3721;44.490;11.220;2023-03-01T16:16:01;5.60;99.90
7362;DHT22;3721;44.490;11.220;2023-03-01T16:18:26;5.60;99.90
7362;DHT22;3721;44.490;11.220;2023-03-01T16:20:52;5.60;99.90
7362;DHT22;3721;44.490;11.220;2023-03-01T16:23:19;5.60;99.90
7362;DHT22;3721;44.490;11.220;2023-03-01T16:25:44;5.60;99.90
7362;DHT22;3721;44.490;11.220;2023-03-01T16:28:10;5.50;99.90
7362;DHT22;3721;44.490;11.220;2023-03-01T16:30:37;5.60;99.90
7362;DHT22;3721;44.490;11.220;2023-03-01T16:33:02;5.60;99.90
7362;DHT22;3721;44.490;11.220;2023-03-01T16:35:31;5.60;99.90
7362;DHT22;3721;44.490;11.220;2023-03-01T16:37:57;5.60;99.90
7362;DHT22;3721;44.490;11.220;2023-03-01T16:40:25;5.60;99.90
7362;DHT22;3721;44.490;11.220;2023-03-01T16:42:52;5.70;99.90
7362;DHT22;3721;44.490;11.220;2023-03-01T16:45:18;5.70;99.90
7362;DHT22;3721;44.490;11.220;2023-03-01T16:47:43;5.70;99.90
7362;DHT22;3721;44.490;11.220;2023-03-01T16:50:09;5.70;99.90
7362;DHT22;3721;44.490;11.220;2023-03-01T16:52:35;5.70;99.90
7362;DHT22;3721;44.490;11.220;2023-03-01T16:55:04;5.70;99.90
7362;DHT22;3721;44.490;11.220;2023-03-01T16:57:30;5.80;99.90
7362;DHT22;3721;44.490;11.220;2023-03-01T16:59:56;5.80;99.90
7362;DHT22;3721;44.490;11.220;2023-03-01T17:02:21;5.80;99.90
7362;DHT22;3721;44.490;11.220;2023-03-01T17:04:53;5.90;99.90
7362;DHT22;3721;44.490;11.220;2023-03-01T17:07:19;5.90;99.90
7362;DHT22;3721;44.490;11.220;2023-03-01T17:09:44;5.90;99.90
7362;DHT22;3721;44.490;11.220;2023-03-01T17:12:13;5.90;99.90
7362;DHT22;3721;44.490;11.220;2023-03-01T17:14:39;5.90;99.90
7362;DHT22;3721;44.490;11.220;2023-03-01T17:17:09;5.90;99.90
7362;DHT22;3721;44.490;11.220;2023-03-01T17:19:36;5.90;99.90
7362;DHT22;3721;44.490;11.220;2023-03-01T17:22:06;5.90;99.90
7362;DHT22;3721;44.490;11.220;2023-03-01T17:24:32;5.90;99.90
7362;DHT22;3721;44.490;11.220;2023-03-01T17:26:58;5.90;99.90
7362;DHT22;3721;44.490;11.220;2023-03-01T17:29:23;5.90;99.90
7362;DHT22;3721;44.490;11.220;2023-03-01T17:31:49;5.90;99.90
7362;DHT22;3721;44.490;11.220;2023-03-01T17:34:14;5.90;99.90
7362;DHT22;3721;44.490;11.220;2023-03-01T17:36:40;5.90;99.90
7362;DHT22;3721;44.490;11.220;2023-03-01T17:39:11;6.00;99.90
7362;DHT22;3721;44.490;11.220;2023-03-01T17:41:49;5.90;99.90
7362;DHT22;3721;44.490;11.220;2023-03-01T17:44:14;5.90;99.90
7362;DHT22;3721;44.490;11.220;2023-03-01T17:46:40;5.90;99.90
7362;DHT22;3721;44.490;11.220;2023-03-01T17:49:18;5.90;99.90
7362;DHT22;3721;44.490;11.220;2023-03-01T17:51:43;6.00;99.90
7362;DHT22;3721;44.490;11.220;2023-03-01T17:54:09;6.00;99.90
7362;DHT22;3721;44.490;11.220;2023-03-01T17:56:35;6.00;99.90
7362;DHT22;3721;44.490;11.220;2023-03-01T17:59:03;6.00;99.90
7362;DHT22;3721;44.490;11.220;2023-03-01T18:01:28;6.10;99.90
7362;DHT22;3721;44.490;11.220;2023-03-01T18:03:54;6.10;99.90
7362;DHT22;3721;44.490;11.220;2023-03-01T18:06:23;6.10;99.90
7362;DHT22;3721;44.490;11.220;2023-03-01T18:08:49;6.00;99.90
7362;DHT22;3721;44.490;11.220;2023-03-01T18:11:16;6.10;99.90
7362;DHT22;3721;44.490;11.220;2023-03-01T18:13:41;6.10;99.90
7362;DHT22;3721;44.490;11.220;2023-03-01T18:16:07;6.10;99.90
7362;DHT22;3721;44.490;11.220;2023-03-01T18:18:33;6.10;99.90
7362;DHT22;3721;44.490;11.220;2023-03-01T18:20:59;6.20;99.90
7362;DHT22;3721;44.490;11.220;2023-03-01T18:23:25;6.20;99.90
7362;DHT22;3721;44.490;11.220;2023-03-01T18:25:51;6.20;99.90
7362;DHT22;3721;44.490;11.220;2023-03-01T18:28:21;6.20;99.90
7362;DHT22;3721;44.490;11.220;2023-03-01T18:30:47;6.30;99.90
7362;DHT22;3721;44.490;11.220;2023-03-01T18:33:12;6.30;99.90
7362;DHT22;3721;44.490;11.220;2023-03-01T18:35:38;6.30;99.90
7362;DHT22;3721;44.490;11.220;2023-03-01T18:38:03;6.30;99.90
7362;DHT22;3721;44.490;11.220;2023-03-01T18:40:29;6.30;99.90
7362;DHT22;3721;44.490;11.220;2023-03-01T18:42:56;6.30;99.90
7362;DHT22;3721;44.490;11.220;2023-03-01T18:45:21;6.30;99.90
7362;DHT22;3721;44.490;11.220;2023-03-01T18:47:47;6.30;99.90
7362;DHT22;3721;44.490;11.220;2023-03-01T18:50:15;6.30;99.90
7362;DHT22;3721;44.490;11.220;2023-03-01T18:52:40;6.30;99.90
7362;DHT22;3721;44.490;11.220;2023-03-01T18:55:06;6.30;99.90
7362;DHT22;3721;44.490;11.220;2023-03-01T18:57:31;6.30;99.90
7362;DHT22;3721;44.490;11.220;2023-03-01T18:59:57;6.30;99.90